createdAt,value
2022-08-25T00:01:30.941Z,8.30
2022-08-25T00:03:59.424Z,7.82
2022-08-25T00:06:27.019Z,7.78
2022-08-25T00:08:53.408Z,7.75
2022-08-25T00:11:21.664Z,8.02
2022-08-25T00:13:49.626Z,7.97
2022-08-25T00:16:16.997Z,7.57
2022-08-25T00:18:45.667Z,7.75
2022-08-25T00:21:12.608Z,7.32
2022-08-25T00:23:39.955Z,7.75
2022-08-25T00:26:07.044Z,7.75
2022-08-25T00:28:33.857Z,7.88
2022-08-25T00:31:01.236Z,7.78
2022-08-25T00:33:28.324Z,7.95
2022-08-25T00:35:56.311Z,8.30
2022-08-25T00:38:22.575Z,7.55
2022-08-25T00:41:05.656Z,8.38
2022-08-25T00:43:40.961Z,8.50
2022-08-25T00:46:08.250Z,7.80
2022-08-25T00:48:34.641Z,8.27
2022-08-25T00:51:02.358Z,8.25
2022-08-25T00:53:29.742Z,7.85
2022-08-25T00:55:56.153Z,7.97
2022-08-25T00:58:25.640Z,8.70
2022-08-25T01:00:53.956Z,7.88
2022-08-25T01:03:20.647Z,8.25
2022-08-25T01:05:50.583Z,8.75
2022-08-25T01:08:21.971Z,7.90
2022-08-25T01:10:49.879Z,8.35
2022-08-25T01:13:22.102Z,7.57
2022-08-25T01:15:49.211Z,8.15
2022-08-25T01:18:15.687Z,8.05
2022-08-25T01:20:42.111Z,7.72
2022-08-25T01:23:08.498Z,7.50
2022-08-25T01:25:37.779Z,7.88
2022-08-25T01:28:04.842Z,7.55
2022-08-25T01:30:31.494Z,7.80
2022-08-25T01:32:58.044Z,7.45
2022-08-25T01:35:24.299Z,7.47
2022-08-25T01:37:50.618Z,6.90
2022-08-25T01:40:16.980Z,6.78
2022-08-25T01:43:06.246Z,6.75
2022-08-25T01:45:33.157Z,6.82
2022-08-25T01:47:59.484Z,6.80
2022-08-25T01:50:25.827Z,6.70
2022-08-25T01:52:58.478Z,6.45
2022-08-25T01:55:25.061Z,6.65
2022-08-25T01:57:51.592Z,6.03
2022-08-25T02:00:18.683Z,6.30
2022-08-25T02:02:44.990Z,5.65
2022-08-25T02:05:13.986Z,6.28
2022-08-25T02:07:41.618Z,6.28
2022-08-25T02:10:08.076Z,6.78
2022-08-25T02:12:35.787Z,5.85
2022-08-25T02:15:02.873Z,5.90
2022-08-25T02:17:29.580Z,5.78
2022-08-25T02:19:56.980Z,5.60
2022-08-25T02:22:23.599Z,6.15
2022-08-25T02:24:50.047Z,6.25
2022-08-25T02:27:16.441Z,6.25
2022-08-25T02:29:42.746Z,6.35
2022-08-25T02:32:10.332Z,5.75
2022-08-25T02:34:37.121Z,5.47
2022-08-25T02:37:03.576Z,5.50
2022-08-25T02:39:29.895Z,6.25
2022-08-25T02:41:56.165Z,6.10
2022-08-25T02:44:22.488Z,5.72
2022-08-25T02:46:48.873Z,5.45
2022-08-25T02:49:15.152Z,5.90
2022-08-25T02:51:41.466Z,6.03
2022-08-25T02:54:07.812Z,5.63
2022-08-25T02:56:34.347Z,5.85
2022-08-25T02:59:01.077Z,5.68
2022-08-25T03:01:29.180Z,5.53
2022-08-25T03:03:55.906Z,5.43
2022-08-25T03:06:23.202Z,4.90
2022-08-25T03:08:50.117Z,5.88
2022-08-25T03:11:17.903Z,5.40
2022-08-25T03:13:44.271Z,5.25
2022-08-25T03:16:12.361Z,5.65
2022-08-25T03:18:40.215Z,5.32
2022-08-25T03:21:06.846Z,4.80
2022-08-25T03:23:33.188Z,4.78
2022-08-25T03:26:18.011Z,4.47
2022-08-25T03:28:44.328Z,4.55
2022-08-25T03:31:10.609Z,4.95
2022-08-25T03:33:38.307Z,5.15
2022-08-25T03:36:05.562Z,4.82
2022-08-25T03:38:31.975Z,5.10
2022-08-25T03:40:58.258Z,5.00
2022-08-25T03:43:24.539Z,4.10
2022-08-25T03:45:50.865Z,4.00
2022-08-25T03:48:17.421Z,3.97
2022-08-25T03:50:50.715Z,4.50
2022-08-25T03:53:18.812Z,4.50
2022-08-25T03:55:45.199Z,4.68
2022-08-25T03:58:12.343Z,4.18
2022-08-25T04:00:38.621Z,4.63
2022-08-25T04:03:04.951Z,4.88
2022-08-25T04:05:31.318Z,4.65
2022-08-25T04:08:01.643Z,4.57
2022-08-25T04:10:28.382Z,4.65
2022-08-25T04:12:55.958Z,4.35
2022-08-25T04:15:22.320Z,4.30
2022-08-25T04:17:48.595Z,4.22
2022-08-25T04:20:18.867Z,4.50
2022-08-25T04:22:45.280Z,4.45
2022-08-25T04:25:11.846Z,4.50
2022-08-25T04:27:38.195Z,4.57
2022-08-25T04:30:05.355Z,3.92
2022-08-25T04:32:32.146Z,4.45
2022-08-25T04:34:58.519Z,4.05
2022-08-25T04:37:24.775Z,3.88
2022-08-25T04:39:51.118Z,4.65
2022-08-25T04:42:17.402Z,4.40
2022-08-25T04:44:43.689Z,4.00
2022-08-25T04:47:10.978Z,4.47
2022-08-25T04:49:37.223Z,4.32
2022-08-25T04:52:03.612Z,4.93
2022-08-25T04:54:36.032Z,4.35
2022-08-25T04:57:03.901Z,3.88
2022-08-25T04:59:30.784Z,3.65
2022-08-25T05:01:58.682Z,3.83
2022-08-25T05:04:28.829Z,3.72
2022-08-25T05:06:56.219Z,4.40
2022-08-25T05:09:22.489Z,3.90
2022-08-25T05:11:55.170Z,3.97
2022-08-25T05:14:25.758Z,4.18
2022-08-25T05:16:53.469Z,4.15
2022-08-25T05:19:19.806Z,4.15
2022-08-25T05:21:46.062Z,4.40
2022-08-25T05:24:12.366Z,3.75
2022-08-25T05:26:38.690Z,4.13
2022-08-25T05:29:05.454Z,4.15
2022-08-25T05:31:32.901Z,3.90
2022-08-25T05:33:59.969Z,4.22
2022-08-25T05:36:27.077Z,4.60
2022-08-25T05:38:54.878Z,4.43
2022-08-25T05:41:28.169Z,4.15
2022-08-25T05:43:54.787Z,3.90
2022-08-25T05:46:21.823Z,4.00
2022-08-25T05:48:48.557Z,4.13
2022-08-25T05:51:15.214Z,4.00
2022-08-25T05:53:44.142Z,4.10
2022-08-25T05:56:11.743Z,4.63
2022-08-25T05:58:38.101Z,4.47
2022-08-25T06:01:37.017Z,4.30
2022-08-25T06:04:03.408Z,4.03
2022-08-25T06:06:30.921Z,3.95
2022-08-25T06:08:57.207Z,3.67
2022-08-25T06:11:23.714Z,3.75
2022-08-25T06:13:50.008Z,5.05
2022-08-25T06:16:16.316Z,3.90
2022-08-25T06:18:42.591Z,4.10
2022-08-25T06:21:09.883Z,4.20
2022-08-25T06:23:36.793Z,4.22
2022-08-25T06:26:03.476Z,3.97
2022-08-25T06:28:29.761Z,4.50
2022-08-25T06:31:00.240Z,4.35
2022-08-25T06:33:26.535Z,4.20
2022-08-25T06:36:00.188Z,4.35
2022-08-25T06:38:26.572Z,4.60
2022-08-25T06:40:53.267Z,4.57
2022-08-25T06:43:20.532Z,4.55
2022-08-25T06:45:46.893Z,5.43
2022-08-25T06:48:13.220Z,4.50
2022-08-25T06:50:39.963Z,4.10
2022-08-25T06:53:06.248Z,5.18
2022-08-25T06:55:32.595Z,4.50
2022-08-25T06:57:58.894Z,4.80
2022-08-25T07:00:30.497Z,4.53
2022-08-25T07:02:58.971Z,4.30
2022-08-25T07:05:33.455Z,4.88
2022-08-25T07:08:01.458Z,5.25
2022-08-25T07:10:27.828Z,3.90
2022-08-25T07:12:57.913Z,4.50
2022-08-25T07:15:24.400Z,4.88
2022-08-25T07:17:50.702Z,4.35
2022-08-25T07:20:19.231Z,4.10
2022-08-25T07:22:45.795Z,4.30
2022-08-25T07:25:12.129Z,4.40
2022-08-25T07:27:39.155Z,4.43
2022-08-25T07:30:08.174Z,3.92
2022-08-25T07:32:34.777Z,4.05
2022-08-25T07:35:16.075Z,3.95
2022-08-25T07:37:49.553Z,3.47
2022-08-25T07:40:34.454Z,3.83
2022-08-25T07:43:02.124Z,3.60
2022-08-25T07:45:32.589Z,3.63
2022-08-25T07:48:05.338Z,3.15
2022-08-25T07:50:33.576Z,3.25
2022-08-25T07:53:00.076Z,3.88
2022-08-25T07:55:27.404Z,3.20
2022-08-25T07:57:57.149Z,3.05
2022-08-25T08:00:24.622Z,3.25
2022-08-25T08:02:51.064Z,2.67
2022-08-25T08:05:17.418Z,2.78
2022-08-25T08:07:44.021Z,3.45
2022-08-25T08:10:42.295Z,2.90
2022-08-25T08:12:58.393Z,3.20
2022-08-25T08:15:24.931Z,2.83
2022-08-25T08:17:54.668Z,3.08
2022-08-25T08:20:23.373Z,2.90
2022-08-25T08:22:50.121Z,3.22
2022-08-25T08:25:18.654Z,3.30
2022-08-25T08:27:47.803Z,3.65
2022-08-25T08:30:14.511Z,2.97
2022-08-25T08:33:06.207Z,3.20
2022-08-25T08:35:27.103Z,2.53
2022-08-25T08:37:54.500Z,2.90
2022-08-25T08:40:21.068Z,3.00
2022-08-25T08:42:50.470Z,3.42
2022-08-25T08:45:21.144Z,2.80
2022-08-25T08:47:50.543Z,3.15
2022-08-25T08:50:22.457Z,2.83
2022-08-25T08:52:59.347Z,2.67
2022-08-25T08:55:44.343Z,3.22
2022-08-25T08:58:15.937Z,2.92
2022-08-25T09:00:48.928Z,3.25
2022-08-25T09:03:34.654Z,3.00
2022-08-25T09:06:02.671Z,2.92
2022-08-25T09:08:29.902Z,3.60
2022-08-25T09:11:02.239Z,3.22
2022-08-25T09:13:29.439Z,2.50
2022-08-25T09:16:20.595Z,3.20
2022-08-25T09:19:07.071Z,3.00
2022-08-25T09:21:51.150Z,2.72
2022-08-25T09:24:23.485Z,3.20
2022-08-25T09:26:58.940Z,3.13
2022-08-25T09:29:29.363Z,3.17
2022-08-25T09:31:58.608Z,4.07
2022-08-25T09:34:28.763Z,2.80
2022-08-25T09:36:55.012Z,2.80
2022-08-25T09:39:23.470Z,2.70
2022-08-25T09:41:56.180Z,2.80
2022-08-25T09:44:31.818Z,2.92
2022-08-25T09:47:02.254Z,2.67
2022-08-25T09:49:37.526Z,2.80
2022-08-25T09:54:44.396Z,2.70
2022-08-25T09:57:30.241Z,2.63
2022-08-25T09:59:57.624Z,2.60
2022-08-25T10:02:26.290Z,2.78
2022-08-25T10:04:53.985Z,2.45
2022-08-25T10:07:20.243Z,2.50
2022-08-25T10:09:56.762Z,2.58
2022-08-25T10:12:29.113Z,2.75
2022-08-25T10:14:55.720Z,2.35
2022-08-25T10:17:27.584Z,2.78
2022-08-25T10:20:12.683Z,2.65
2022-08-25T10:22:40.466Z,2.70
2022-08-25T10:25:08.711Z,2.50
2022-08-25T10:27:39.023Z,2.88
2022-08-25T10:30:05.372Z,3.03
2022-08-25T10:32:47.311Z,2.60
2022-08-25T10:35:17.235Z,2.50
2022-08-25T10:38:02.208Z,2.55
2022-08-25T10:40:32.254Z,2.67
2022-08-25T10:43:07.405Z,2.42
2022-08-25T10:45:47.721Z,2.65
2022-08-25T10:48:32.797Z,2.60
2022-08-25T10:51:03.494Z,2.45
2022-08-25T10:53:49.066Z,2.00
2022-08-25T10:56:22.892Z,2.08
2022-08-25T10:59:04.710Z,2.40
2022-08-25T11:01:43.554Z,2.90
2022-08-25T11:04:12.894Z,2.28
2022-08-25T11:06:54.596Z,3.05
2022-08-25T11:09:23.742Z,2.80
2022-08-25T11:12:08.669Z,2.72
2022-08-25T11:17:06.206Z,2.13
2022-08-25T11:19:40.711Z,2.10
2022-08-25T11:22:22.373Z,2.55
2022-08-25T11:25:07.359Z,2.13
2022-08-25T11:27:37.599Z,2.83
2022-08-25T11:30:07.288Z,2.22
2022-08-25T11:32:35.528Z,2.50
2022-08-25T11:35:03.408Z,2.20
2022-08-25T11:37:30.936Z,2.47
2022-08-25T11:39:57.281Z,2.42
2022-08-25T11:42:35.722Z,2.33
2022-08-25T11:45:07.773Z,2.00
2022-08-25T11:47:51.120Z,2.35
2022-08-25T11:50:43.412Z,1.83
2022-08-25T11:53:29.048Z,2.20
2022-08-25T11:56:04.216Z,2.45
2022-08-25T11:58:42.631Z,2.10
2022-08-25T12:01:10.388Z,1.73
2022-08-25T12:03:39.637Z,2.00
2022-08-25T12:06:09.049Z,2.10
2022-08-25T12:08:57.522Z,2.17
2022-08-25T12:11:42.206Z,1.77
2022-08-25T12:14:28.593Z,2.05
2022-08-25T12:16:55.020Z,1.77
2022-08-25T12:19:25.900Z,2.03
2022-08-25T12:21:54.647Z,1.77
2022-08-25T12:24:22.529Z,1.90
2022-08-25T12:26:52.526Z,1.88
2022-08-25T12:29:41.509Z,1.90
2022-08-25T12:32:10.592Z,1.70
2022-08-25T12:34:44.037Z,2.05
2022-08-25T12:39:43.512Z,1.90
2022-08-25T12:42:24.758Z,2.17
2022-08-25T12:45:14.159Z,2.35
2022-08-25T12:47:44.735Z,1.80
2022-08-25T12:50:32.322Z,2.08
2022-08-25T12:53:20.068Z,1.80
2022-08-25T12:55:49.453Z,2.03
2022-08-25T12:58:16.172Z,1.67
2022-08-25T13:01:06.969Z,1.73
2022-08-25T13:03:58.802Z,2.22
2022-08-25T13:06:43.559Z,1.73
2022-08-25T13:09:14.901Z,2.13
2022-08-25T13:11:41.665Z,2.40
2022-08-25T13:14:20.204Z,2.40
2022-08-25T13:16:54.206Z,2.05
2022-08-25T13:19:22.417Z,2.20
2022-08-25T13:21:49.474Z,2.00
2022-08-25T13:24:19.450Z,1.95
2022-08-25T13:26:48.565Z,2.20
2022-08-25T13:29:25.992Z,2.10
2022-08-25T13:31:57.418Z,1.90
2022-08-25T13:34:34.411Z,2.08
2022-08-25T13:37:27.620Z,1.90
2022-08-25T13:40:19.324Z,1.83
2022-08-25T13:42:54.414Z,2.20
2022-08-25T13:45:26.817Z,2.25
2022-08-25T13:47:55.703Z,2.00
2022-08-25T13:50:28.428Z,2.15
2022-08-25T13:52:57.722Z,1.83
2022-08-25T13:55:28.486Z,2.22
2022-08-25T13:57:56.783Z,2.30
2022-08-25T14:00:40.042Z,1.90
2022-08-25T14:03:12.862Z,1.90
2022-08-25T14:05:41.982Z,2.03
2022-08-25T14:08:26.150Z,2.35
2022-08-25T14:11:14.584Z,1.60
2022-08-25T14:13:44.082Z,2.13
2022-08-25T14:16:15.266Z,2.20
2022-08-25T14:18:54.502Z,1.80
2022-08-25T14:21:26.313Z,1.75
2022-08-25T14:23:53.288Z,1.75
2022-08-25T14:26:19.733Z,2.08
2022-08-25T14:28:46.063Z,2.10
2022-08-25T14:31:13.874Z,1.90
2022-08-25T14:33:50.104Z,1.80
2022-08-25T14:36:20.724Z,2.03
2022-08-25T14:38:47.796Z,2.40
2022-08-25T14:41:21.358Z,2.10
2022-08-25T14:43:47.736Z,2.25
2022-08-25T14:46:18.215Z,2.08
2022-08-25T14:48:46.849Z,2.15
2022-08-25T14:51:15.402Z,2.33
2022-08-25T14:53:42.456Z,2.60
2022-08-25T14:56:10.386Z,2.13
2022-08-25T14:58:48.548Z,2.38
2022-08-25T15:01:21.105Z,1.98
2022-08-25T15:03:57.293Z,2.28
2022-08-25T15:06:23.623Z,2.30
2022-08-25T15:09:11.471Z,2.25
2022-08-25T15:11:41.583Z,2.50
2022-08-25T15:14:09.436Z,2.35
2022-08-25T15:16:46.208Z,2.30
2022-08-25T15:19:15.872Z,1.92
2022-08-25T15:21:43.231Z,2.03
2022-08-25T15:24:10.644Z,2.58
2022-08-25T15:26:46.079Z,4.22
2022-08-25T15:29:12.541Z,10.38
2022-08-25T15:31:42.049Z,4.75
2022-08-25T15:34:11.756Z,1.92
2022-08-25T15:36:38.723Z,1.90
2022-08-25T15:39:05.565Z,1.83
2022-08-25T15:41:31.915Z,2.28
2022-08-25T15:43:59.728Z,2.20
2022-08-25T15:46:28.592Z,1.85
2022-08-25T15:48:57.004Z,2.28
2022-08-25T15:51:23.467Z,2.03
2022-08-25T15:53:49.776Z,2.40
2022-08-25T15:56:26.975Z,2.05
2022-08-25T15:58:53.719Z,2.40
2022-08-25T16:01:21.247Z,2.13
2022-08-25T16:03:47.851Z,2.10
2022-08-25T16:06:14.160Z,1.73
2022-08-25T16:08:40.536Z,2.30
2022-08-25T16:11:16.927Z,2.30
2022-08-25T16:13:44.066Z,1.98
2022-08-25T16:16:10.383Z,2.35
2022-08-25T16:18:36.767Z,2.08
2022-08-25T16:21:03.536Z,2.10
2022-08-25T16:23:39.507Z,2.35
2022-08-25T16:26:08.836Z,2.40
2022-08-25T16:28:36.920Z,2.28
2022-08-25T16:31:03.295Z,2.22
2022-08-25T16:33:29.675Z,2.22
2022-08-25T16:36:10.710Z,3.00
2022-08-25T16:38:38.083Z,2.42
2022-08-25T16:41:09.007Z,2.15
2022-08-25T16:43:36.030Z,2.40
2022-08-25T16:46:04.958Z,2.47
2022-08-25T16:48:31.202Z,2.22
2022-08-25T16:50:57.788Z,2.40
2022-08-25T16:53:42.893Z,2.55
2022-08-25T16:56:11.584Z,2.60
2022-08-25T16:58:38.677Z,2.22
2022-08-25T17:01:09.579Z,2.53
2022-08-25T17:03:36.940Z,3.03
2022-08-25T17:06:03.580Z,2.50
2022-08-25T17:08:30.584Z,2.67
2022-08-25T17:11:18.337Z,2.45
2022-08-25T17:13:46.029Z,2.70
2022-08-25T17:16:14.755Z,3.30
2022-08-25T17:18:41.532Z,3.63
2022-08-25T17:21:09.042Z,4.63
